Time;durP1;ratioP1;P1;durP2;ratioP2;P2;SDS_P1;SDS_P2;PMS_P1;PMS_P2;Temp;Humidity;BMP_temperature;BMP_pressure;BME280_temperature;BME280_humidity;BME280_pressure;Samples;Min_cycle;Max_cycle;Signal;HPM_P1;HPM_P2
2022/09/08 00:02:10;;;;;;;33.72;18.20;;;;;;;17.53;85.10;100895.75;4992449;28;20033;-70
2022/09/08 00:04:35;;;;;;;22.92;18.23;;;;;;;17.60;84.82;100904.88;4996626;28;20041;-70
2022/09/08 00:07:01;;;;;;;25.75;19.25;;;;;;;17.59;84.61;100903.16;5000592;28;20025;-69
2022/09/08 00:09:29;;;;;;;26.08;18.60;;;;;;;17.47;85.08;100901.19;4991572;28;20026;-70
2022/09/08 00:11:56;;;;;;;28.83;18.40;;;;;;;17.48;84.49;100900.16;5008528;28;20049;-70
2022/09/08 00:14:21;;;;;;;32.25;19.73;;;;;;;17.43;85.07;100903.50;4996863;28;20100;-70
2022/09/08 00:16:47;;;;;;;22.95;17.90;;;;;;;17.52;84.53;100891.31;4994731;28;20084;-70
2022/09/08 00:19:12;;;;;;;25.73;19.98;;;;;;;17.48;84.83;100900.16;5000367;28;20025;-71
2022/09/08 00:21:37;;;;;;;20.83;18.58;;;;;;;17.50;84.69;100887.94;4991516;28;20040;-70
2022/09/08 00:24:03;;;;;;;42.15;17.65;;;;;;;17.44;84.87;100894.25;4996338;28;20045;-70
2022/09/08 00:26:28;;;;;;;27.10;19.15;;;;;;;17.56;84.72;100895.34;4992116;28;20030;-70
2022/09/08 00:28:54;;;;;;;23.95;17.17;;;;;;;17.38;85.18;100892.31;4994035;28;20365;-70
2022/09/08 00:31:19;;;;;;;24.00;18.13;;;;;;;17.43;84.42;100892.56;5004178;28;20069;-70
2022/09/08 00:33:45;;;;;;;26.50;19.23;;;;;;;17.38;83.85;100889.56;4992651;28;20419;-71
2022/09/08 00:36:14;;;;;;;34.53;22.80;;;;;;;17.28;85.44;100878.16;4993030;28;20030;-70
2022/09/08 00:38:40;;;;;;;27.55;21.15;;;;;;;17.26;85.08;100880.25;4994443;28;20022;-70
2022/09/08 00:41:11;;;;;;;24.20;19.55;;;;;;;17.28;84.68;100889.94;4993217;28;20084;-70
2022/09/08 00:43:40;;;;;;;26.30;22.00;;;;;;;17.31;84.36;100888.69;5007746;28;20026;-70
2022/09/08 00:46:33;;;;;;;31.05;20.15;;;;;;;17.21;85.11;100888.19;5006977;28;20029;-70
2022/09/08 00:49:08;;;;;;;22.42;17.95;;;;;;;17.05;84.58;100871.06;4989891;28;20048;-71
2022/09/08 00:51:38;;;;;;;31.38;19.75;;;;;;;17.16;85.15;100863.34;4995352;28;20026;-70
2022/09/08 00:54:05;;;;;;;25.38;18.65;;;;;;;17.16;85.26;100863.34;4997173;28;20029;-70
2022/09/08 00:56:30;;;;;;;27.83;18.02;;;;;;;17.10;85.05;100865.00;5001576;28;20037;-70
2022/09/08 00:58:56;;;;;;;33.83;22.75;;;;;;;16.97;86.40;100854.81;5001500;28;20096;-70
2022/09/08 01:01:22;;;;;;;28.17;22.13;;;;;;;16.98;86.38;100861.97;4994389;28;20030;-70
2022/09/08 01:03:47;;;;;;;29.90;22.23;;;;;;;16.91;87.03;100861.09;5014836;28;20092;-70
2022/09/08 01:12:43;;;;;;;28.45;21.65;;;;;;;16.93;86.88;100859.00;5000042;28;20025;-70
2022/09/08 01:14:56;;;;;;;28.17;20.45;;;;;;;16.92;87.21;100854.56;4991371;28;20074;-71
2022/09/08 01:17:28;;;;;;;27.20;20.63;;;;;;;16.89;88.00;100863.19;4992627;28;20050;-71
2022/09/08 01:19:55;;;;;;;31.27;21.20;;;;;;;16.96;87.21;100858.59;4997553;28;20022;-70
2022/09/08 01:22:51;;;;;;;29.10;23.75;;;;;;;16.85;87.66;100850.94;4991823;28;20026;-70
2022/09/08 01:25:47;;;;;;;26.63;19.80;;;;;;;16.82;87.38;100840.41;4984675;28;20022;-71
2022/09/08 01:28:19;;;;;;;24.80;21.17;;;;;;;16.77;88.00;100842.91;4989688;28;20026;-70
2022/09/08 01:30:46;;;;;;;28.63;20.83;;;;;;;16.73;87.66;100838.88;5003835;28;20021;-70
2022/09/08 01:33:13;;;;;;;26.35;20.58;;;;;;;16.71;87.90;100832.78;4992666;28;20010;-70
2022/09/08 01:35:39;;;;;;;28.27;22.48;;;;;;;16.64;87.99;100842.78;5003724;28;20057;-70
2022/09/08 01:38:06;;;;;;;28.15;23.17;;;;;;;16.45;88.77;100845.16;4990804;28;20014;-71
2022/09/08 01:40:31;;;;;;;29.10;19.52;;;;;;;16.53;87.30;100841.41;4991383;28;20022;-71
2022/09/08 01:42:57;;;;;;;29.27;20.77;;;;;;;16.65;86.96;100855.41;4990361;28;20026;-71
2022/09/08 01:45:23;;;;;;;29.98;22.45;;;;;;;16.57;87.14;100852.81;4992127;28;20029;-69
2022/09/08 01:47:49;;;;;;;29.30;21.20;;;;;;;16.47;87.61;100837.59;4990948;28;20123;-69
2022/09/08 01:50:15;;;;;;;26.70;16.90;;;;;;;16.46;87.44;100841.38;4992605;28;20030;-69
2022/09/08 01:52:40;;;;;;;26.58;20.42;;;;;;;16.55;87.46;100844.78;4991790;28;20022;-69
2022/09/08 01:55:06;;;;;;;32.30;20.20;;;;;;;16.51;86.71;100838.06;4991371;28;20081;-69
2022/09/08 01:57:31;;;;;;;36.22;21.42;;;;;;;16.51;87.30;100844.38;4991844;28;20054;-69
2022/09/08 01:59:56;;;;;;;25.95;19.25;;;;;;;16.49;86.45;100851.91;4992009;28;20026;-69
2022/09/08 02:02:21;;;;;;;25.13;18.38;;;;;;;16.50;86.40;100842.69;4990797;28;20154;-69
2022/09/08 02:04:47;;;;;;;24.05;18.80;;;;;;;16.41;86.81;100843.84;4990542;28;20080;-69
2022/09/08 02:07:12;;;;;;;26.48;20.95;;;;;;;16.36;87.24;100856.41;4990623;28;20033;-69
2022/09/08 02:09:37;;;;;;;27.65;21.48;;;;;;;16.39;87.18;100845.94;4991954;28;20037;-68
2022/09/08 02:12:04;;;;;;;25.65;18.88;;;;;;;16.27;87.71;100852.97;4991541;28;20380;-68
2022/09/08 02:14:29;;;;;;;26.45;18.92;;;;;;;16.27;87.63;100842.03;4990436;28;20064;-68
2022/09/08 02:16:54;;;;;;;22.95;18.20;;;;;;;16.27;87.30;100836.56;4990986;28;20057;-68
2022/09/08 02:19:20;;;;;;;27.83;19.15;;;;;;;16.20;87.27;100835.69;4991519;28;20033;-68
2022/09/08 02:21:45;;;;;;;29.73;20.83;;;;;;;16.21;86.90;100829.16;4990022;28;20026;-68
2022/09/08 02:24:11;;;;;;;26.75;21.45;;;;;;;16.29;86.41;100823.56;4991536;28;20026;-68
2022/09/08 02:26:37;;;;;;;32.05;21.15;;;;;;;16.05;87.91;100823.97;5006511;28;20076;-68
2022/09/08 02:29:03;;;;;;;30.00;19.67;;;;;;;16.04;87.94;100808.59;4991427;28;20019;-68
2022/09/08 02:31:29;;;;;;;34.67;18.88;;;;;;;16.10;88.06;100807.81;4990947;28;20074;-68
2022/09/08 02:33:55;;;;;;;24.75;17.75;;;;;;;16.18;87.32;100805.00;5006442;28;20488;-68
2022/09/08 02:36:21;;;;;;;24.05;20.02;;;;;;;16.16;87.03;100801.59;5004975;28;20046;-68
2022/09/08 02:38:51;;;;;;;24.50;17.90;;;;;;;15.98;87.39;100805.66;4991110;28;20030;-68
2022/09/08 02:41:16;;;;;;;20.83;17.90;;;;;;;15.97;87.94;100793.03;4991198;28;20365;-69
2022/09/08 02:43:41;;;;;;;25.58;19.63;;;;;;;16.00;88.24;100792.63;4991285;28;20033;-68
2022/09/08 02:46:09;;;;;;;22.83;18.42;;;;;;;16.01;88.06;100788.84;4989922;28;20539;-69
2022/09/08 02:48:35;;;;;;;21.98;17.38;;;;;;;15.97;87.62;100782.13;4986474;28;20058;-68
2022/09/08 02:51:02;;;;;;;24.23;18.55;;;;;;;15.89;88.80;100793.16;4970772;28;20488;-68
2022/09/08 02:53:29;;;;;;;24.65;19.88;;;;;;;15.92;88.66;100794.66;4971557;28;20155;-69
2022/09/08 02:55:55;;;;;;;27.27;18.30;;;;;;;15.93;88.19;100797.19;4971344;28;20510;-68
2022/09/08 02:58:43;;;;;;;28.85;19.27;;;;;;;15.90;88.41;100796.72;5006098;23;20049;-77
2022/09/08 03:01:17;;;;;;;21.95;16.98;;;;;;;15.87;88.18;100797.97;5029730;28;20037;-77
2022/09/08 03:04:21;;;;;;;;;;;;;;;;;;;;;
2022/09/08 03:07:36;;;;;;;28.40;18.70;;;;;;;15.86;87.70;100796.28;5030649;28;20021;-77
2022/09/08 03:10:54;;;;;;;;;;;;;;;;;;;;;
2022/09/08 03:13:40;;;;;;;22.52;15.23;;;;;;;15.79;88.46;100800.81;5017709;28;20026;-77
2022/09/08 03:16:39;;;;;;;23.60;15.57;;;;;;;15.76;88.58;100790.28;5016304;28;20061;-77
2022/09/08 03:19:30;;;;;;;24.02;17.08;;;;;;;15.86;87.98;100790.81;5014150;28;20022;-77
2022/09/08 03:22:32;;;;;;;23.88;16.23;;;;;;;16.04;86.77;100803.16;5011894;28;20021;-77
2022/09/08 03:25:27;;;;;;;24.55;16.95;;;;;;;16.02;86.99;100806.94;5011637;28;20033;-77
2022/09/08 03:28:34;;;;;;;15.70;13.77;;;;;;;15.94;86.94;100806.22;5007596;28;20102;-77
2022/09/08 03:31:38;;;;;;;22.48;16.65;;;;;;;16.08;86.17;100799.84;5000463;28;20030;-77
2022/09/08 03:34:41;;;;;;;;;;;;;;;;;;;;;
2022/09/08 03:37:35;;;;;;;20.50;14.90;;;;;;;15.95;86.51;100800.56;5013009;28;20026;-77
2022/09/08 03:40:43;;;;;;;;;;;;;;;;;;;;;
2022/09/08 03:43:31;;;;;;;21.42;13.90;;;;;;;16.02;85.81;100796.00;5012504;28;20025;-76
2022/09/08 03:49:23;;;;;;;25.15;14.30;;;;;;;15.91;86.28;100793.81;5023993;23;20050;-66
2022/09/08 03:51:49;;;;;;;21.85;14.98;;;;;;;15.78;86.96;100777.31;5029851;28;20108;-68
2022/09/08 03:56:58;;;;;;;18.67;12.38;;;;;;;15.75;86.62;100766.75;5031138;28;20489;-67
2022/09/08 03:59:23;;;;;;;33.97;15.43;;;;;;;15.77;86.76;100764.66;5031780;28;20137;-68
2022/09/08 04:01:49;;;;;;;20.38;15.07;;;;;;;15.82;86.19;100762.19;5029436;28;20024;-69
2022/09/08 04:04:15;;;;;;;21.52;14.45;;;;;;;15.76;87.23;100762.97;5030164;28;20026;-69
2022/09/08 04:06:41;;;;;;;25.38;14.85;;;;;;;15.79;87.32;100768.06;5029912;28;20025;-68
2022/09/08 04:09:06;;;;;;;20.85;15.10;;;;;;;15.88;86.41;100761.41;5031476;28;20018;-68
2022/09/08 04:11:32;;;;;;;25.55;13.77;;;;;;;15.70;87.05;100763.75;5030562;28;20086;-68
2022/09/08 04:13:57;;;;;;;17.80;13.65;;;;;;;15.63;87.25;100757.38;5029949;28;20124;-67
2022/09/08 04:16:23;;;;;;;23.65;13.68;;;;;;;15.55;87.31;100755.59;5029876;28;20032;-68
2022/09/08 04:18:48;;;;;;;20.60;12.93;;;;;;;15.64;86.90;100753.63;5049320;28;20033;-67
2022/09/08 04:21:14;;;;;;;20.75;13.85;;;;;;;15.64;86.70;100759.06;5028705;28;20032;-68
2022/09/08 04:23:40;;;;;;;21.83;12.95;;;;;;;15.64;86.97;100761.81;5033700;28;20025;-68
2022/09/08 04:26:09;;;;;;;20.27;13.45;;;;;;;15.72;86.56;100756.25;5030410;28;20100;-68
2022/09/08 04:28:35;;;;;;;24.10;12.75;;;;;;;15.76;86.39;100753.94;5025284;28;20045;-68
2022/09/08 04:31:05;;;;;;;17.05;12.43;;;;;;;15.71;86.80;100749.06;5031461;28;20144;-68
2022/09/08 04:33:31;;;;;;;14.93;12.82;;;;;;;15.81;86.28;100746.88;5034005;28;20026;-66
2022/09/08 04:35:56;;;;;;;24.30;11.45;;;;;;;15.82;85.78;100751.28;5027662;28;20029;-68
2022/09/08 04:38:22;;;;;;;19.83;12.20;;;;;;;15.70;85.70;100758.31;5031379;28;20021;-68
2022/09/08 04:40:47;;;;;;;16.20;11.35;;;;;;;15.73;85.88;100753.31;5032581;28;20029;-69
2022/09/08 04:43:13;;;;;;;15.88;12.70;;;;;;;15.81;85.91;100744.13;5024989;28;20024;-68
2022/09/08 04:45:38;;;;;;;20.85;11.68;;;;;;;15.89;85.26;100735.81;5033254;28;20375;-68
2022/09/08 04:48:04;;;;;;;15.77;12.57;;;;;;;15.87;84.97;100743.34;5032498;28;20120;-68
2022/09/08 04:50:29;;;;;;;17.63;12.25;;;;;;;15.89;85.01;100733.06;5032772;28;20044;-69
2022/09/08 04:52:55;;;;;;;18.67;11.75;;;;;;;15.98;84.07;100731.91;5032696;28;20025;-69
2022/09/08 04:55:20;;;;;;;19.45;11.23;;;;;;;15.93;84.27;100736.28;5034040;28;20033;-70
2022/09/08 04:57:45;;;;;;;22.63;11.52;;;;;;;15.87;84.87;100737.91;5032720;28;20021;-68
2022/09/08 05:00:13;;;;;;;13.15;10.43;;;;;;;15.90;84.27;100731.19;5032314;28;20026;-69
2022/09/08 05:02:39;;;;;;;21.70;12.15;;;;;;;15.77;85.18;100740.09;5032579;28;20029;-69
2022/09/08 05:05:04;;;;;;;30.98;13.10;;;;;;;15.78;84.95;100736.34;5049266;28;20063;-69
2022/09/08 05:07:30;;;;;;;22.95;11.15;;;;;;;15.91;84.50;100728.28;5032313;28;20021;-69
2022/09/08 05:09:55;;;;;;;17.17;11.40;;;;;;;15.84;84.69;100707.41;5033215;28;20029;-69
2022/09/08 05:12:21;;;;;;;24.92;11.80;;;;;;;15.75;85.37;100720.34;5031765;28;20083;-69
2022/09/08 05:14:46;;;;;;;20.17;11.30;;;;;;;15.94;84.18;100716.94;5033298;28;20029;-67
2022/09/08 05:17:11;;;;;;;18.42;10.88;;;;;;;15.85;84.10;100712.69;5048851;28;20028;-68
2022/09/08 05:19:37;;;;;;;17.27;10.13;;;;;;;15.90;84.10;100707.44;5032086;28;20048;-68
2022/09/08 05:22:02;;;;;;;15.48;10.55;;;;;;;15.76;84.99;100697.47;5042930;28;20030;-67
2022/09/08 05:24:28;;;;;;;18.77;10.55;;;;;;;15.82;84.67;100702.13;5018193;28;20034;-69
2022/09/08 05:26:53;;;;;;;21.88;9.90;;;;;;;15.92;84.11;100707.28;5031486;28;20029;-69
2022/09/08 05:29:18;;;;;;;19.27;10.88;;;;;;;15.78;84.34;100700.88;5031500;28;20055;-69
2022/09/08 05:31:44;;;;;;;19.35;10.30;;;;;;;15.86;84.20;100692.53;5029047;28;20035;-68
2022/09/08 05:34:09;;;;;;;24.60;10.02;;;;;;;16.00;83.52;100704.41;5030237;28;20029;-70
2022/09/08 05:36:35;;;;;;;18.85;8.73;;;;;;;16.05;82.80;100690.16;5031598;28;20040;-69
2022/09/08 05:39:03;;;;;;;18.70;8.82;;;;;;;15.99;83.35;100680.88;5031525;28;20017;-68
2022/09/08 05:41:30;;;;;;;17.25;8.82;;;;;;;15.95;83.45;100680.41;5031643;28;20029;-68
2022/09/08 05:43:56;;;;;;;14.05;8.60;;;;;;;16.04;82.65;100680.25;5021031;28;20021;-68
2022/09/08 05:46:25;;;;;;;16.73;8.00;;;;;;;16.06;82.58;100680.91;5032760;28;20017;-69
2022/09/08 05:48:57;;;;;;;19.80;8.65;;;;;;;16.06;82.39;100697.31;5032144;28;20021;-69
2022/09/08 05:51:23;;;;;;;17.23;8.57;;;;;;;16.23;81.84;100698.66;5031535;28;20237;-69
2022/09/08 05:53:49;;;;;;;19.45;8.40;;;;;;;16.35;81.30;100691.59;5032674;28;20025;-69
2022/09/08 05:56:18;;;;;;;14.60;7.53;;;;;;;16.47;80.71;100694.63;5031234;28;20040;-68
2022/09/08 05:58:49;;;;;;;18.45;7.85;;;;;;;16.31;81.04;100690.34;5031118;28;20048;-69
2022/09/08 06:01:15;;;;;;;24.08;8.07;;;;;;;16.31;80.84;100698.53;5024695;28;20021;-69
2022/09/08 06:03:40;;;;;;;11.88;7.35;;;;;;;16.41;80.90;100690.81;5030882;28;20029;-68
2022/09/08 06:06:08;;;;;;;12.43;6.95;;;;;;;16.59;79.61;100683.97;5031002;28;20458;-67
2022/09/08 06:08:35;;;;;;;15.88;6.85;;;;;;;16.55;79.94;100684.38;5022843;28;20027;-69
2022/09/08 06:11:00;;;;;;;21.50;8.27;;;;;;;16.58;78.96;100685.03;5030817;28;20027;-68
2022/09/08 06:13:26;;;;;;;13.40;7.40;;;;;;;16.58;79.09;100691.34;5020508;28;20030;-68
2022/09/08 06:15:52;;;;;;;19.70;6.63;;;;;;;16.71;78.69;100691.44;5030485;28;20024;-69
2022/09/08 06:18:18;;;;;;;18.10;6.15;;;;;;;16.68;78.34;100696.44;5031031;28;20009;-69
2022/09/08 06:20:45;;;;;;;17.65;6.50;;;;;;;16.79;78.08;100693.16;5029959;28;20029;-69
2022/09/08 06:23:11;;;;;;;14.18;6.60;;;;;;;16.97;77.57;100706.28;5030417;28;20024;-69
2022/09/08 06:25:45;;;;;;;21.70;6.68;;;;;;;16.95;77.36;100701.03;5019875;28;20084;-69
2022/09/08 06:28:33;;;;;;;15.23;7.10;;;;;;;17.02;77.15;100699.16;5030199;28;20555;-68
2022/09/08 06:30:59;;;;;;;14.60;6.35;;;;;;;17.05;76.68;100703.34;5030874;28;20039;-68
2022/09/08 06:33:31;;;;;;;20.65;6.18;;;;;;;17.27;76.14;100704.06;5030565;28;20060;-67
2022/09/08 06:36:19;;;;;;;17.05;6.70;;;;;;;17.19;75.68;100694.16;5030979;28;20029;-68
2022/09/08 06:38:50;;;;;;;24.10;11.68;;;;;;;17.14;75.92;100693.91;5020768;28;20027;-67
2022/09/08 06:41:21;;;;;;;11.20;5.55;;;;;;;17.04;75.82;100702.53;5021740;28;20021;-67
2022/09/08 06:44:07;;;;;;;15.38;5.22;;;;;;;16.99;75.49;100694.06;5031236;28;20041;-67
2022/09/08 06:46:36;;;;;;;12.27;6.35;;;;;;;16.84;75.68;100698.03;5030844;28;20021;-65
2022/09/08 06:49:01;;;;;;;12.27;5.55;;;;;;;16.79;75.75;100693.16;5030434;28;20032;-68
2022/09/08 06:51:41;;;;;;;16.23;5.63;;;;;;;16.81;76.13;100696.53;5030501;28;20136;-67
2022/09/08 06:54:10;;;;;;;15.23;4.95;;;;;;;16.93;74.79;100694.91;5030602;28;20545;-68
2022/09/08 06:56:53;;;;;;;15.73;5.90;;;;;;;16.64;75.10;100685.06;5036792;28;20025;-68
2022/09/08 06:59:31;;;;;;;20.63;5.82;;;;;;;16.87;74.51;100684.78;5020705;28;20124;-68
2022/09/08 07:02:20;;;;;;;19.30;5.95;;;;;;;16.79;74.86;100687.69;5041583;28;20118;-66
2022/09/08 07:04:59;;;;;;;22.55;5.75;;;;;;;16.78;75.02;100691.47;5013124;28;20044;-66
2022/09/08 07:07:44;;;;;;;20.52;5.63;;;;;;;16.87;74.37;100690.25;5024094;28;20044;-66
2022/09/08 07:10:31;;;;;;;13.05;4.60;;;;;;;16.88;74.20;100678.25;5024844;28;20037;-67
2022/09/08 07:13:26;;;;;;;11.57;5.18;;;;;;;17.04;74.12;100675.16;5025971;28;20060;-67
2022/09/08 07:16:06;;;;;;;11.07;5.22;;;;;;;17.00;73.78;100673.88;5025349;28;20029;-64
2022/09/08 07:18:51;;;;;;;20.45;5.60;;;;;;;17.00;73.64;100686.72;5024442;28;20021;-67
2022/09/08 07:21:28;;;;;;;12.80;4.70;;;;;;;16.97;73.78;100682.50;5024181;28;20385;-67
2022/09/08 07:23:59;;;;;;;14.52;5.65;;;;;;;16.92;73.56;100686.91;5024517;28;20025;-66
2022/09/08 07:26:48;;;;;;;22.88;5.55;;;;;;;16.88;73.95;100691.91;5024875;28;20018;-66
2022/09/08 07:29:29;;;;;;;13.23;5.53;;;;;;;17.01;73.52;100683.75;5024132;28;20116;-68
2022/09/08 07:31:55;;;;;;;16.23;5.23;;;;;;;16.93;73.53;100681.22;5025077;28;20063;-69
2022/09/08 07:34:30;;;;;;;20.67;5.20;;;;;;;17.05;73.12;100665.91;5024639;28;20288;-67
2022/09/08 07:37:42;;;;;;;8.80;4.82;;;;;;;17.16;72.96;100680.06;5024425;28;20022;-67
2022/09/08 07:40:17;;;;;;;17.23;4.93;;;;;;;17.45;72.00;100678.84;5005471;28;20034;-65
2022/09/08 07:42:49;;;;;;;14.27;4.75;;;;;;;17.38;72.35;100670.63;5018871;28;20037;-68
2022/09/08 07:45:14;;;;;;;15.63;7.18;;;;;;;17.36;72.01;100678.19;5025193;28;20417;-64
2022/09/08 07:48:01;;;;;;;18.13;5.28;;;;;;;17.55;71.03;100655.50;5024590;28;20121;-68
2022/09/08 07:50:56;;;;;;;16.48;4.95;;;;;;;17.36;71.08;100659.03;5025886;28;20100;-65
2022/09/08 07:53:47;;;;;;;9.25;4.70;;;;;;;17.32;71.29;100649.56;5028517;28;20583;-67
2022/09/08 07:56:22;;;;;;;22.13;5.38;;;;;;;17.24;71.63;100647.03;5029124;28;20029;-66
2022/09/08 07:59:06;;;;;;;17.23;4.68;;;;;;;17.28;70.80;100654.63;5020068;28;20032;-66
2022/09/08 08:01:31;;;;;;;16.05;4.80;;;;;;;16.96;71.60;100656.22;5023602;28;20064;-65
2022/09/08 08:04:24;;;;;;;11.60;4.03;;;;;;;17.18;70.79;100653.31;5028889;28;20053;-66
2022/09/08 08:06:53;;;;;;;13.98;4.32;;;;;;;17.26;70.97;100653.13;5028192;28;20038;-65
2022/09/08 08:09:48;;;;;;;11.05;4.22;;;;;;;17.42;69.51;100644.53;5028350;28;20044;-67
2022/09/08 08:12:26;;;;;;;19.50;5.10;;;;;;;17.54;69.29;100651.06;5020666;28;20025;-67
2022/09/08 08:15:12;;;;;;;13.98;4.57;;;;;;;17.66;69.28;100644.94;5027987;28;20032;-67
2022/09/08 08:17:53;;;;;;;7.50;4.32;;;;;;;17.48;69.98;100649.16;5023998;28;20033;-69
2022/09/08 08:20:43;;;;;;;8.40;3.88;;;;;;;17.70;68.47;100646.22;5028267;28;20168;-65
2022/09/08 08:23:34;;;;;;;10.65;4.47;;;;;;;17.84;68.52;100653.41;5028422;28;20036;-64
2022/09/08 08:26:19;;;;;;;11.50;4.47;;;;;;;17.68;68.36;100648.34;5027604;28;20116;-67
2022/09/08 08:28:45;;;;;;;19.40;4.63;;;;;;;17.70;68.31;100648.97;5027894;28;20341;-67
2022/09/08 08:31:25;;;;;;;11.13;4.72;;;;;;;17.46;68.65;100639.47;5027256;28;20029;-66
2022/09/08 08:34:00;;;;;;;16.40;4.30;;;;;;;17.66;67.67;100644.94;5027485;28;20053;-67
2022/09/08 08:36:28;;;;;;;12.00;4.22;;;;;;;17.64;67.37;100643.25;5027626;28;20052;-64
2022/09/08 08:39:13;;;;;;;18.67;4.90;;;;;;;17.64;67.34;100642.44;5027468;28;20029;-67
2022/09/08 08:41:58;;;;;;;14.68;4.43;;;;;;;17.47;67.74;100646.63;5028080;28;20021;-65
2022/09/08 08:44:41;;;;;;;15.77;3.90;;;;;;;17.31;67.78;100631.44;5027662;28;20020;-64
2022/09/08 08:47:26;;;;;;;10.20;3.67;;;;;;;17.27;67.89;100646.59;5027094;28;20026;-66
2022/09/08 08:50:07;;;;;;;10.13;3.92;;;;;;;17.29;68.66;100660.94;5027385;28;20417;-67
2022/09/08 08:52:49;;;;;;;14.23;4.03;;;;;;;17.03;68.50;100678.97;5027372;28;20033;-67
2022/09/08 08:55:49;;;;;;;17.30;4.25;;;;;;;17.30;67.82;100652.50;5028208;28;20028;-66
2022/09/08 08:58:55;;;;;;;23.75;4.35;;;;;;;17.31;67.43;100647.88;5021636;28;20033;-67
2022/09/08 09:01:42;;;;;;;10.68;3.95;;;;;;;17.43;66.87;100657.16;5026786;28;20072;-66
2022/09/08 09:04:16;;;;;;;11.02;4.05;;;;;;;17.37;67.06;100663.47;5027750;28;20025;-66
2022/09/08 09:06:59;;;;;;;16.55;4.45;;;;;;;17.76;66.18;100656.38;5027892;28;20049;-67
2022/09/08 09:09:52;;;;;;;13.93;4.22;;;;;;;17.72;65.87;100650.47;5027959;28;20017;-66
2022/09/08 09:12:48;;;;;;;8.75;3.88;;;;;;;17.82;65.27;100650.06;5028754;28;20022;-65
2022/09/08 09:15:55;;;;;;;12.25;3.92;;;;;;;17.92;65.09;100650.44;5027986;28;20040;-67
2022/09/08 09:18:30;;;;;;;11.98;3.80;;;;;;;17.97;64.10;100664.34;5019509;28;20075;-66
2022/09/08 09:21:03;;;;;;;15.88;3.60;;;;;;;17.82;64.69;100655.53;5026988;28;20018;-66
2022/09/08 09:23:56;;;;;;;7.47;3.75;;;;;;;17.72;64.64;100655.94;5028020;28;20088;-66
2022/09/08 09:26:25;;;;;;;22.30;4.82;;;;;;;17.80;64.35;100654.88;5028406;28;20025;-67
2022/09/08 09:28:59;;;;;;;14.85;3.90;;;;;;;18.09;63.51;100651.69;5027638;28;20053;-67
2022/09/08 09:31:47;;;;;;;7.43;3.83;;;;;;;18.11;63.69;100638.63;5027340;28;20033;-67
2022/09/08 09:34:40;;;;;;;12.25;3.70;;;;;;;18.24;62.60;100639.66;5026533;28;20051;-68
2022/09/08 09:37:15;;;;;;;14.45;3.70;;;;;;;18.06;63.54;100635.72;5027975;28;20148;-67
2022/09/08 09:40:14;;;;;;;13.10;4.97;;;;;;;17.89;63.29;100621.59;5028605;28;20101;-66
2022/09/08 09:42:55;;;;;;;10.27;4.88;;;;;;;18.21;62.45;100623.66;5027560;28;20021;-67
2022/09/08 09:45:39;;;;;;;9.40;3.38;;;;;;;18.21;62.75;100604.47;5023633;28;20112;-66
2022/09/08 09:48:23;;;;;;;17.13;4.30;;;;;;;18.18;62.58;100605.72;5027571;28;20033;-67
2022/09/08 09:51:13;;;;;;;13.40;3.90;;;;;;;18.15;62.50;100607.00;5027273;28;20474;-65
2022/09/08 09:54:03;;;;;;;12.63;4.63;;;;;;;18.40;62.08;100595.34;5022625;28;20041;-67
2022/09/08 09:56:47;;;;;;;11.63;4.05;;;;;;;18.64;61.31;100578.16;5027383;28;20100;-67
2022/09/08 09:59:47;;;;;;;20.27;4.35;;;;;;;18.78;60.98;100578.09;5027640;28;20026;-65
2022/09/08 10:02:37;;;;;;;7.38;3.55;;;;;;;18.92;61.15;100563.28;5028743;28;20032;-65
2022/09/08 10:05:25;;;;;;;13.38;4.68;;;;;;;18.78;61.07;100557.03;5027370;28;20045;-65
2022/09/08 10:08:15;;;;;;;15.45;4.25;;;;;;;18.61;61.16;100556.66;5016572;28;20025;-67
2022/09/08 10:11:09;;;;;;;9.65;4.45;;;;;;;18.63;61.03;100551.78;5027830;28;20037;-67
2022/09/08 10:13:54;;;;;;;24.98;4.95;;;;;;;18.64;61.22;100550.72;5024619;28;20060;-67
2022/09/08 10:16:56;;;;;;;15.10;4.38;;;;;;;18.33;62.06;100558.91;5026422;28;20112;-66
2022/09/08 10:19:44;;;;;;;12.05;4.13;;;;;;;18.30;62.48;100554.69;5026854;28;20025;-67
2022/09/08 10:22:37;;;;;;;15.18;4.57;;;;;;;18.65;61.56;100546.09;5026644;28;20029;-66
2022/09/08 10:26:08;;;;;;;10.23;4.43;;;;;;;18.78;61.06;100557.03;5027126;28;20071;-64
2022/09/08 10:28:51;;;;;;;10.90;4.75;;;;;;;18.45;61.44;100557.13;5006324;28;20044;-67
2022/09/08 10:31:16;;;;;;;13.23;4.93;;;;;;;18.20;62.36;100558.94;5025447;28;20064;-65
2022/09/08 10:33:57;;;;;;;12.60;4.28;;;;;;;18.02;62.70;100568.69;5026273;28;20053;-66
2022/09/08 10:37:01;;;;;;;17.70;4.80;;;;;;;17.99;62.94;100580.06;5010878;28;20055;-66
2022/09/08 10:39:41;;;;;;;9.18;5.25;;;;;;;17.94;63.50;100577.16;5010796;28;20030;-67
2022/09/08 10:42:32;;;;;;;14.88;4.68;;;;;;;17.98;64.16;100583.84;5025939;28;20070;-67
2022/09/08 10:45:17;;;;;;;17.70;5.60;;;;;;;17.56;66.77;100586.00;5015353;28;20029;-65
2022/09/08 10:48:21;;;;;;;12.93;4.60;;;;;;;17.58;67.46;100589.34;5026667;28;20029;-64
2022/09/08 10:50:52;;;;;;;29.52;5.88;;;;;;;17.60;67.33;100576.31;5027149;28;20037;-68
2022/09/08 10:53:36;;;;;;;10.80;5.17;;;;;;;17.36;68.87;100590.63;5027128;28;20025;-66
2022/09/08 10:56:04;;;;;;;10.93;5.85;;;;;;;17.12;71.57;100577.53;5025957;28;20462;-66
2022/09/08 10:58:52;;;;;;;16.48;5.60;;;;;;;16.87;76.27;100575.38;5026450;28;20037;-68
2022/09/08 11:01:31;;;;;;;16.10;7.05;;;;;;;16.26;81.92;100583.53;5027293;28;20045;-69
2022/09/08 11:04:26;;;;;;;13.32;6.57;;;;;;;16.15;83.44;100575.91;5027051;28;20394;-70
2022/09/08 11:07:29;;;;;;;19.67;8.80;;;;;;;16.16;85.04;100583.91;5026265;28;20041;-67
2022/09/08 11:10:22;;;;;;;21.13;8.13;;;;;;;15.84;86.99;100590.84;5012803;28;20039;-70
2022/09/08 11:13:03;;;;;;;25.30;9.57;;;;;;;15.80;88.94;100597.75;5026431;28;20021;-68
2022/09/08 11:15:50;;;;;;;33.47;9.73;;;;;;;15.75;90.50;100616.63;5027111;28;20056;-69
2022/09/08 11:18:18;;;;;;;31.17;10.75;;;;;;;15.76;90.91;100621.03;5022818;28;20021;-69
2022/09/08 11:20:51;;;;;;;25.85;12.38;;;;;;;15.84;92.53;100623.59;5026910;28;20091;-69
2022/09/08 11:23:41;;;;;;;25.42;12.30;;;;;;;15.74;93.05;100634.03;5026032;28;20025;-69
2022/09/08 11:26:54;;;;;;;22.98;10.52;;;;;;;15.36;93.26;100637.03;5019764;28;20030;-67
2022/09/08 11:29:29;;;;;;;18.88;9.00;;;;;;;15.26;92.23;100628.34;5014292;28;20039;-67
2022/09/08 11:32:08;;;;;;;19.50;9.27;;;;;;;15.24;92.51;100627.69;5028787;28;20029;-68
2022/09/08 11:34:56;;;;;;;18.40;9.13;;;;;;;15.52;91.54;100625.03;5028458;28;20039;-66
2022/09/08 11:37:27;;;;;;;17.10;9.02;;;;;;;15.63;92.17;100615.47;5024867;28;20013;-67
2022/09/08 11:40:02;;;;;;;19.55;10.13;;;;;;;15.80;92.28;100610.56;5028761;28;20029;-66
2022/09/08 11:42:45;;;;;;;21.33;10.80;;;;;;;16.10;91.11;100605.72;5029642;28;20037;-67
2022/09/08 11:45:29;;;;;;;23.23;9.70;;;;;;;15.96;91.34;100605.63;5028520;28;20029;-67
2022/09/08 11:48:14;;;;;;;20.83;10.77;;;;;;;15.97;91.81;100596.41;5028742;28;20024;-68
2022/09/08 11:50:56;;;;;;;19.80;10.63;;;;;;;16.12;91.12;100595.44;5029299;28;20052;-69
2022/09/08 11:53:29;;;;;;;27.92;9.95;;;;;;;15.86;91.66;100594.25;5029858;28;20089;-65
2022/09/08 11:56:05;;;;;;;19.38;11.18;;;;;;;15.80;91.79;100589.56;5029726;28;20036;-66
2022/09/08 11:59:03;;;;;;;19.73;10.43;;;;;;;15.92;92.19;100593.44;5028918;28;20017;-65
2022/09/08 12:01:28;;;;;;;21.00;11.00;;;;;;;15.88;93.27;100597.59;5022783;28;20038;-66
2022/09/08 12:04:18;;;;;;;27.55;10.55;;;;;;;15.97;91.53;100584.63;5028022;28;20118;-67
2022/09/08 12:07:33;;;;;;;26.65;11.95;;;;;;;16.33;90.82;100595.34;5026562;28;20040;-66
2022/09/08 12:10:01;;;;;;;18.10;11.63;;;;;;;16.38;91.79;100603.78;5027388;28;20014;-65
2022/09/08 12:12:44;;;;;;;24.88;13.73;;;;;;;16.31;91.82;100597.44;5029211;28;20095;-65
2022/09/08 12:15:36;;;;;;;23.85;12.35;;;;;;;16.06;92.59;100598.97;5027353;28;20029;-65